Time;durP1;ratioP1;P1;durP2;ratioP2;P2;SDS_P1;SDS_P2;PMS_P1;PMS_P2;Temp;Humidity;BMP_temperature;BMP_pressure;BME280_temperature;BME280_humidity;BME280_pressure;Samples;Min_cycle;Max_cycle;Signal;HPM_P1;HPM_P2
2021/08/02 00:00:27;;;;;;;15.52;11.52;;;;;;;22.21;62.29;96104.72;4989020;28;20072;-62
2021/08/02 00:02:56;;;;;;;14.32;10.98;;;;;;;22.16;62.60;96106.13;5082049;28;20100;-62
2021/08/02 00:05:23;;;;;;;15.68;10.85;;;;;;;22.08;62.19;96101.50;5093779;28;20119;-62
2021/08/02 00:07:58;;;;;;;14.60;11.73;;;;;;;22.08;62.00;96102.38;5090506;28;20077;-62
2021/08/02 00:10:28;;;;;;;17.98;11.10;;;;;;;22.09;62.38;96104.03;5087298;28;20051;-62
2021/08/02 00:12:59;;;;;;;16.73;10.90;;;;;;;22.12;62.52;96104.75;5083513;28;20025;-62
2021/08/02 00:15:27;;;;;;;19.15;11.48;;;;;;;22.04;61.98;96108.09;5083621;28;20460;-63
2021/08/02 00:17:52;;;;;;;18.15;11.73;;;;;;;22.06;62.73;96111.44;5092364;28;20486;-63
2021/08/02 00:20:36;;;;;;;20.38;10.98;;;;;;;21.99;62.36;96113.00;5084906;28;20031;-62
2021/08/02 00:23:07;;;;;;;23.45;11.50;;;;;;;21.95;62.69;96120.44;5090624;28;20381;-64
2021/08/02 00:25:32;;;;;;;;;;;;;;;21.94;63.33;96122.25;5078837;28;20044;-61
2021/08/02 00:27:58;;;;;;;18.55;10.52;;;;;;;21.88;63.23;96125.47;5082407;28;19957;-62
2021/08/02 00:30:24;;;;;;;18.00;11.18;;;;;;;21.90;63.33;96117.34;5090245;28;20023;-62
2021/08/02 00:32:51;;;;;;;19.27;11.43;;;;;;;21.91;63.05;96119.06;5090634;28;20032;-64
2021/08/02 00:35:17;;;;;;;16.10;11.02;;;;;;;21.88;63.33;96112.16;5077251;28;20040;-65
2021/08/02 00:37:48;;;;;;;17.15;10.77;;;;;;;21.86;63.90;96108.81;5075258;28;20028;-63
2021/08/02 00:40:48;;;;;;;15.38;10.60;;;;;;;21.85;63.65;96117.75;5081074;28;20476;-63
2021/08/02 00:43:45;;;;;;;16.67;10.60;;;;;;;21.87;63.48;96105.16;5093971;28;20047;-65
2021/08/02 00:46:13;;;;;;;14.90;10.93;;;;;;;21.82;63.42;96092.28;5091660;28;20051;-63
2021/08/02 00:49:10;;;;;;;15.25;11.48;;;;;;;21.73;63.08;96086.94;5093790;28;20016;-61
2021/08/02 00:51:46;;;;;;;14.55;10.35;;;;;;;21.74;63.67;96097.44;5060728;28;20398;-63
2021/08/02 00:54:15;;;;;;;22.15;11.43;;;;;;;21.74;63.77;96094.78;5077631;28;20111;-66
2021/08/02 00:56:41;;;;;;;19.13;11.88;;;;;;;21.74;63.68;96094.78;5073623;28;20040;-63
2021/08/02 00:59:08;;;;;;;17.77;11.05;;;;;;;21.64;63.40;96092.09;5089134;28;20024;-65
2021/08/02 01:01:36;;;;;;;14.60;11.10;;;;;;;21.60;63.42;96085.38;5079382;28;20059;-64
2021/08/02 01:04:02;;;;;;;17.92;10.93;;;;;;;21.57;63.74;96097.13;5080812;28;20036;-65
2021/08/02 01:06:33;;;;;;;15.68;9.90;;;;;;;21.58;63.99;96084.66;5074378;28;20047;-63
2021/08/02 01:09:04;;;;;;;21.73;11.52;;;;;;;21.55;63.94;96092.94;5093191;28;20024;-64
2021/08/02 01:11:32;;;;;;;17.58;10.13;;;;;;;21.54;63.83;96093.91;5084685;28;20070;-63
2021/08/02 01:14:01;;;;;;;14.10;10.85;;;;;;;21.50;63.96;96096.00;5093163;28;20023;-61
2021/08/02 01:16:28;;;;;;;15.10;10.25;;;;;;;21.50;63.86;96095.16;5073516;28;20058;-65
2021/08/02 01:18:55;;;;;;;14.60;11.10;;;;;;;21.49;64.01;96088.16;5084594;28;20035;-66
2021/08/02 01:21:21;;;;;;;16.02;11.70;;;;;;;21.44;64.13;96086.78;5084406;28;20020;-63
2021/08/02 01:23:48;;;;;;;17.60;10.63;;;;;;;21.42;64.43;96082.53;5072717;28;20025;-64
2021/08/02 01:26:42;;;;;;;16.27;11.27;;;;;;;21.37;64.54;96090.09;5091307;28;20016;-62
2021/08/02 01:29:45;;;;;;;19.00;10.88;;;;;;;21.32;64.55;96090.50;5090640;28;20044;-63
2021/08/02 01:32:11;;;;;;;14.35;11.52;;;;;;;21.25;64.39;96087.53;5073876;28;20036;-63
2021/08/02 01:34:36;;;;;;;16.15;11.13;;;;;;;21.17;64.57;96093.56;5075193;28;20053;-63
2021/08/02 01:37:02;;;;;;;18.02;11.77;;;;;;;21.17;64.49;96096.22;5078026;28;20101;-62
2021/08/02 01:39:28;;;;;;;22.90;12.30;;;;;;;21.25;64.76;96102.69;5079497;28;20029;-62
2021/08/02 01:41:53;;;;;;;20.50;11.32;;;;;;;21.27;64.73;96114.00;5080638;28;20101;-62
2021/08/02 01:44:19;;;;;;;17.50;11.13;;;;;;;21.30;64.47;96109.25;5087133;28;20016;-62
2021/08/02 01:47:02;;;;;;;17.42;11.05;;;;;;;21.25;64.53;96115.97;5090682;28;20035;-62
2021/08/02 01:49:37;;;;;;;18.63;11.40;;;;;;;21.25;64.36;96113.31;5086652;28;20020;-61
2021/08/02 01:52:05;;;;;;;18.48;12.85;;;;;;;21.09;64.55;96114.66;5087847;28;20103;-61
2021/08/02 01:54:47;;;;;;;16.52;11.57;;;;;;;21.13;64.85;96115.25;5074531;28;20489;-62
2021/08/02 01:57:25;;;;;;;17.80;11.02;;;;;;;21.15;64.97;96111.47;5072733;28;20116;-61
2021/08/02 01:59:58;;;;;;;21.38;11.93;;;;;;;21.08;65.03;96112.97;5055661;28;20393;-61
2021/08/02 02:02:26;;;;;;;15.63;11.73;;;;;;;21.03;65.68;96102.75;5078977;28;20035;-61
2021/08/02 02:05:14;;;;;;;17.92;12.07;;;;;;;21.00;65.47;96100.34;5079169;28;20028;-61
2021/08/02 02:07:48;;;;;;;16.90;11.65;;;;;;;20.94;65.35;96100.88;5072279;28;20048;-61
2021/08/02 02:10:17;;;;;;;19.92;12.65;;;;;;;20.92;65.48;96100.19;5080073;28;20477;-61
2021/08/02 02:12:43;;;;;;;15.23;11.88;;;;;;;20.94;65.65;96107.06;5087897;28;20048;-61
2021/08/02 02:15:10;;;;;;;20.13;11.35;;;;;;;20.98;65.50;96107.59;5076187;28;20050;-61
2021/08/02 02:17:39;;;;;;;16.40;11.85;;;;;;;20.98;65.48;96112.94;5084331;28;20032;-61
2021/08/02 02:20:06;;;;;;;15.35;11.40;;;;;;;20.92;65.10;96124.94;5083056;28;20074;-61
2021/08/02 02:22:33;;;;;;;17.65;12.82;;;;;;;20.99;65.65;96117.28;5078769;28;20031;-61
2021/08/02 02:24:59;;;;;;;17.60;11.82;;;;;;;20.96;65.53;96117.56;5093012;28;20077;-61
2021/08/02 02:27:26;;;;;;;17.58;11.88;;;;;;;20.98;65.65;96128.06;5086381;28;20021;-61
2021/08/02 02:29:53;;;;;;;19.52;11.55;;;;;;;20.94;65.36;96132.78;5093078;28;20024;-62
2021/08/02 02:32:19;;;;;;;17.95;12.85;;;;;;;20.91;65.97;96130.38;5093904;28;20030;-62
2021/08/02 02:34:48;;;;;;;19.27;11.18;;;;;;;20.89;65.68;96133.16;5087956;28;20028;-62
2021/08/02 02:37:14;;;;;;;18.75;11.93;;;;;;;20.86;65.72;96124.63;5083599;28;20056;-62
2021/08/02 02:39:41;;;;;;;16.52;11.40;;;;;;;20.86;65.44;96130.75;5091731;28;20475;-62
2021/08/02 02:42:08;;;;;;;18.90;12.00;;;;;;;20.88;66.08;96125.31;5081146;28;20036;-62
2021/08/02 02:44:35;;;;;;;17.90;12.00;;;;;;;20.75;66.07;96130.84;5091438;28;20032;-62
2021/08/02 02:47:02;;;;;;;17.48;11.95;;;;;;;20.77;66.10;96131.56;5083503;28;20069;-62
2021/08/02 02:49:29;;;;;;;17.83;11.30;;;;;;;20.74;66.04;96126.50;5078868;28;20096;-62
2021/08/02 02:51:56;;;;;;;17.00;11.73;;;;;;;20.69;66.13;96129.56;5075567;28;20032;-63
2021/08/02 02:54:26;;;;;;;20.00;12.75;;;;;;;20.65;66.50;96117.53;5075537;28;20100;-63
2021/08/02 02:56:55;;;;;;;16.33;11.05;;;;;;;20.56;66.13;96125.28;5076500;28;20025;-63
2021/08/02 02:59:20;;;;;;;15.10;11.70;;;;;;;20.60;66.43;96125.88;5075393;28;20104;-63
2021/08/02 03:01:49;;;;;;;19.23;12.48;;;;;;;20.53;66.29;96120.25;5075460;28;20056;-64
2021/08/02 03:04:18;;;;;;;23.30;12.38;;;;;;;20.56;66.35;96117.31;5075561;28;20470;-63
2021/08/02 03:06:45;;;;;;;23.00;12.13;;;;;;;20.61;66.50;96122.25;5077442;28;20036;-62
2021/08/02 03:09:17;;;;;;;16.77;11.50;;;;;;;20.54;66.53;96121.94;5095316;28;20028;-63
2021/08/02 03:11:43;;;;;;;20.85;12.27;;;;;;;20.52;66.57;96121.22;5093299;28;20031;-64
2021/08/02 03:14:09;;;;;;;15.65;11.85;;;;;;;20.41;67.42;96116.00;5075138;28;20031;-62
2021/08/02 03:16:35;;;;;;;18.60;11.38;;;;;;;20.41;67.38;96119.47;5075165;28;20025;-64
2021/08/02 03:19:01;;;;;;;20.75;12.65;;;;;;;20.44;66.96;96126.34;5083427;28;20043;-61
2021/08/02 03:21:28;;;;;;;17.33;12.52;;;;;;;20.48;67.05;96118.94;5075529;28;20017;-61
2021/08/02 03:24:20;;;;;;;20.85;12.40;;;;;;;20.56;66.88;96125.28;5075162;28;20032;-64
2021/08/02 03:27:12;;;;;;;14.65;11.82;;;;;;;20.63;67.27;96130.94;5086938;28;20066;-63
2021/08/02 03:29:41;;;;;;;20.00;11.40;;;;;;;20.66;66.67;96129.81;5027380;28;20429;-63
2021/08/02 03:32:11;;;;;;;17.88;11.95;;;;;;;20.61;67.04;96129.38;5074631;28;20057;-65
2021/08/02 03:34:37;;;;;;;17.60;11.80;;;;;;;20.66;66.67;96121.84;5074765;28;20028;-62
2021/08/02 03:37:08;;;;;;;17.20;11.65;;;;;;;20.70;66.43;96124.13;5091715;28;20036;-61
2021/08/02 03:39:35;;;;;;;15.93;11.90;;;;;;;20.76;66.43;96140.50;5080269;28;20198;-62
2021/08/02 03:42:03;;;;;;;14.73;11.70;;;;;;;20.86;66.30;96128.09;5082395;28;20063;-63
2021/08/02 03:44:31;;;;;;;14.07;10.95;;;;;;;20.98;66.15;96130.72;5083207;28;20016;-61
2021/08/02 03:46:57;;;;;;;23.15;11.85;;;;;;;21.03;66.13;96131.13;5081741;28;20020;-62
2021/08/02 03:49:23;;;;;;;15.20;10.98;;;;;;;21.12;65.63;96127.69;5092079;28;20048;-62
2021/08/02 03:52:00;;;;;;;21.15;11.60;;;;;;;21.24;65.54;96131.06;5074553;28;20025;-63
2021/08/02 03:54:28;;;;;;;15.82;11.15;;;;;;;21.37;65.45;96136.16;5080460;28;20485;-62
2021/08/02 03:56:56;;;;;;;17.58;10.50;;;;;;;21.52;65.13;96131.28;5078183;28;20508;-62
2021/08/02 03:59:23;;;;;;;17.67;11.15;;;;;;;21.65;64.73;96140.84;5090307;28;20043;-62
2021/08/02 04:01:48;;;;;;;20.02;10.63;;;;;;;21.81;64.39;96135.84;5091588;28;20031;-64
2021/08/02 04:04:14;;;;;;;14.52;10.23;;;;;;;22.02;63.98;96134.88;5086311;28;20024;-64
2021/08/02 04:06:40;;;;;;;13.38;10.15;;;;;;;22.26;63.45;96143.41;5083704;28;20051;-64
2021/08/02 04:09:08;;;;;;;16.42;9.80;;;;;;;22.47;62.79;96154.75;5075341;28;20021;-65
2021/08/02 04:11:35;;;;;;;16.10;9.85;;;;;;;22.68;62.16;96153.75;5084516;28;20102;-64
2021/08/02 04:14:01;;;;;;;16.25;10.20;;;;;;;22.99;62.02;96160.66;5075931;28;20382;-64
2021/08/02 04:16:26;;;;;;;17.35;9.27;;;;;;;23.25;61.01;96162.69;5073071;28;20021;-64
2021/08/02 04:18:52;;;;;;;13.52;9.77;;;;;;;23.44;60.29;96163.59;5072393;28;20028;-64
2021/08/02 04:21:18;;;;;;;15.80;10.15;;;;;;;23.71;60.09;96161.91;5073783;28;20046;-64
2021/08/02 04:23:44;;;;;;;20.48;9.48;;;;;;;23.97;59.07;96159.34;5073854;28;20021;-64
2021/08/02 04:26:12;;;;;;;16.40;10.23;;;;;;;24.29;58.84;96162.47;5073865;28;20028;-65
2021/08/02 04:28:38;;;;;;;15.13;9.60;;;;;;;24.57;58.29;96161.53;5073854;28;20028;-65
2021/08/02 04:31:04;;;;;;;13.98;8.48;;;;;;;24.82;57.69;96151.00;5073799;28;20052;-65
2021/08/02 04:33:30;;;;;;;13.70;9.65;;;;;;;25.10;57.79;96146.34;5073732;28;20446;-65
2021/08/02 04:35:55;;;;;;;15.25;8.60;;;;;;;25.49;56.85;96141.47;5073627;28;20052;-65
2021/08/02 04:38:21;;;;;;;13.35;8.77;;;;;;;25.84;55.89;96153.00;5073418;28;20078;-65
2021/08/02 04:40:46;;;;;;;16.13;9.25;;;;;;;26.11;55.19;96152.84;5073559;28;20494;-65
2021/08/02 04:43:12;;;;;;;13.07;8.20;;;;;;;26.41;54.84;96150.56;5073432;28;20376;-65
2021/08/02 04:45:38;;;;;;;15.32;8.43;;;;;;;26.64;54.31;96146.34;5073588;28;20017;-65
2021/08/02 04:48:04;;;;;;;13.77;7.78;;;;;;;26.90;53.66;96146.13;5073581;28;20108;-65
2021/08/02 04:50:30;;;;;;;11.45;7.88;;;;;;;27.22;52.85;96151.59;5073508;28;20021;-65
2021/08/02 04:52:55;;;;;;;14.88;8.45;;;;;;;27.44;52.15;96146.47;5073348;28;20078;-65
2021/08/02 04:55:21;;;;;;;13.23;7.90;;;;;;;27.69;52.95;96133.78;5073508;28;20036;-65
2021/08/02 04:57:46;;;;;;;13.02;7.80;;;;;;;27.96;51.36;96130.78;5073316;28;20020;-66
2021/08/02 05:00:12;;;;;;;9.85;8.50;;;;;;;28.19;50.93;96133.47;5073438;28;20028;-65
2021/08/02 05:02:39;;;;;;;12.48;8.10;;;;;;;28.57;51.30;96131.84;5073222;28;20033;-66
2021/08/02 05:05:05;;;;;;;12.30;8.23;;;;;;;28.88;49.32;96129.00;5073281;28;20033;-66
2021/08/02 05:07:31;;;;;;;15.23;9.13;;;;;;;29.11;48.71;96130.78;5073276;28;20044;-66
2021/08/02 05:09:56;;;;;;;10.07;8.27;;;;;;;29.38;49.55;96130.34;5073217;28;20051;-65
2021/08/02 05:12:22;;;;;;;16.40;8.82;;;;;;;29.72;50.01;96125.34;5073129;28;20035;-66
2021/08/02 05:14:47;;;;;;;14.10;8.05;;;;;;;29.95;48.71;96119.78;5073009;28;20025;-66
2021/08/02 05:17:13;;;;;;;13.55;7.75;;;;;;;30.19;49.20;96115.06;5073135;28;20035;-66
2021/08/02 05:19:39;;;;;;;11.77;8.07;;;;;;;30.37;47.54;96111.91;5073027;28;20077;-66
2021/08/02 05:22:05;;;;;;;12.00;7.68;;;;;;;30.54;46.85;96129.66;5073126;28;20070;-66
2021/08/02 05:24:32;;;;;;;11.68;8.15;;;;;;;30.68;47.68;96127.91;5073154;28;20074;-66
2021/08/02 05:26:58;;;;;;;12.93;8.18;;;;;;;31.01;47.03;96140.84;5073077;28;20021;-66
2021/08/02 05:29:24;;;;;;;15.52;9.38;;;;;;;31.35;47.49;96132.94;5073076;28;20024;-66
2021/08/02 05:31:49;;;;;;;14.48;8.43;;;;;;;31.70;46.12;96127.47;5072920;28;20017;-66
2021/08/02 05:34:18;;;;;;;20.05;8.85;;;;;;;32.03;43.26;96124.03;5072998;28;20550;-66
2021/08/02 05:36:45;;;;;;;14.43;9.45;;;;;;;32.18;43.15;96127.59;5072915;28;20046;-66
2021/08/02 05:39:10;;;;;;;12.98;9.40;;;;;;;32.51;44.33;96124.94;5072890;28;20021;-66
2021/08/02 05:41:36;;;;;;;17.33;8.98;;;;;;;32.83;43.22;96124.28;5072706;28;20106;-66
2021/08/02 05:44:03;;;;;;;19.88;9.25;;;;;;;33.14;42.37;96124.69;5072809;28;20013;-66
2021/08/02 05:46:29;;;;;;;15.32;9.07;;;;;;;33.46;42.23;96127.47;5072858;28;20074;-66
2021/08/02 05:48:55;;;;;;;16.30;8.43;;;;;;;33.63;40.98;96133.28;5073812;28;20024;-66
2021/08/02 05:51:20;;;;;;;19.35;8.85;;;;;;;33.83;41.37;96140.47;5076877;28;20472;-66
2021/08/02 05:53:46;;;;;;;11.90;9.13;;;;;;;34.06;40.91;96139.09;5076840;28;20024;-66
2021/08/02 05:56:12;;;;;;;18.08;8.57;;;;;;;34.32;40.67;96140.00;5076816;28;20095;-66
2021/08/02 05:58:40;;;;;;;15.60;9.27;;;;;;;34.54;39.90;96148.59;5076741;28;20474;-66
2021/08/02 06:01:06;;;;;;;14.50;8.63;;;;;;;34.82;40.21;96129.41;5076692;28;20039;-66
2021/08/02 06:03:32;;;;;;;19.23;11.00;;;;;;;34.98;38.30;96136.97;5076665;28;20013;-66
2021/08/02 06:05:59;;;;;;;16.27;10.45;;;;;;;35.01;37.87;96141.94;5076542;28;20035;-66
2021/08/02 06:08:25;;;;;;;15.75;9.63;;;;;;;35.11;37.86;96138.69;5076482;28;20028;-66
2021/08/02 06:10:50;;;;;;;19.23;9.27;;;;;;;35.34;36.80;96139.97;5076589;28;20055;-66
2021/08/02 06:13:16;;;;;;;18.85;9.52;;;;;;;35.55;35.96;96140.53;5076502;28;20538;-66
2021/08/02 06:15:42;;;;;;;13.23;8.77;;;;;;;35.67;35.25;96137.88;5076286;28;20046;-66
2021/08/02 06:18:07;;;;;;;14.77;9.07;;;;;;;35.63;35.32;96142.09;5076339;28;20485;-66
2021/08/02 06:20:33;;;;;;;16.80;9.75;;;;;;;35.72;35.28;96140.75;5076280;28;20016;-66
2021/08/02 06:23:00;;;;;;;17.33;9.68;;;;;;;35.97;34.25;96147.97;5076351;28;20645;-66
2021/08/02 06:25:26;;;;;;;14.48;9.32;;;;;;;36.01;34.50;96142.91;5076254;28;20020;-66
2021/08/02 06:27:51;;;;;;;15.15;10.27;;;;;;;36.03;34.71;96143.50;5076074;28;20070;-66
2021/08/02 06:30:18;;;;;;;14.55;9.68;;;;;;;36.28;34.45;96146.09;5076083;28;20112;-66
2021/08/02 06:32:44;;;;;;;18.55;9.88;;;;;;;36.56;34.81;96138.31;5075964;28;20040;-66
2021/08/02 06:35:09;;;;;;;13.70;8.85;;;;;;;36.76;33.68;96148.91;5076133;28;20033;-66
2021/08/02 06:37:38;;;;;;;24.70;10.50;;;;;;;36.82;34.53;96138.13;5076114;28;20071;-66
2021/08/02 06:40:05;;;;;;;14.52;9.07;;;;;;;36.76;32.85;96138.03;5075945;28;20563;-66
2021/08/02 06:42:30;;;;;;;21.92;9.32;;;;;;;36.80;33.78;96132.91;5075691;28;20044;-66
2021/08/02 06:44:56;;;;;;;18.48;9.65;;;;;;;36.90;33.78;96133.16;5075835;28;20026;-66
2021/08/02 06:47:22;;;;;;;14.35;8.40;;;;;;;37.14;32.59;96132.31;5075846;28;20056;-66
2021/08/02 06:49:47;;;;;;;18.00;9.38;;;;;;;37.13;31.71;96127.91;5075799;28;20024;-66
2021/08/02 06:52:13;;;;;;;15.18;9.23;;;;;;;37.32;32.49;96127.81;5075735;28;20029;-66
2021/08/02 06:54:38;;;;;;;15.27;9.30;;;;;;;37.61;31.90;96120.50;5075573;28;20021;-66
2021/08/02 06:57:04;;;;;;;20.98;9.30;;;;;;;37.75;31.42;96128.41;5075640;28;20034;-66
2021/08/02 06:59:30;;;;;;;19.70;10.23;;;;;;;37.58;31.31;96125.59;5075431;28;20478;-66
2021/08/02 07:01:55;;;;;;;22.85;9.98;;;;;;;37.79;31.70;96133.16;5075605;28;20028;-66
2021/08/02 07:04:21;;;;;;;15.80;9.07;;;;;;;38.06;31.77;96139.91;5075657;28;20016;-66
2021/08/02 07:06:46;;;;;;;14.70;9.60;;;;;;;38.24;31.31;96127.13;5075599;28;20044;-66
2021/08/02 07:09:12;;;;;;;13.75;9.70;;;;;;;38.12;30.47;96128.00;5075427;28;20016;-66
2021/08/02 07:11:37;;;;;;;18.30;9.95;;;;;;;38.11;30.96;96131.81;5075350;28;20028;-67
2021/08/02 07:14:03;;;;;;;20.05;9.40;;;;;;;38.01;31.57;96118.81;5075420;28;20028;-67
2021/08/02 07:16:29;;;;;;;19.38;10.02;;;;;;;37.79;31.63;96126.84;5075357;28;20024;-67
2021/08/02 07:18:54;;;;;;;22.50;10.05;;;;;;;37.67;31.08;96126.88;5075342;28;20020;-67
2021/08/02 07:21:21;;;;;;;21.52;9.98;;;;;;;37.84;31.96;96137.03;5075212;28;20074;-67
2021/08/02 07:23:48;;;;;;;20.83;10.65;;;;;;;37.89;30.79;96127.06;5075125;28;20118;-67
2021/08/02 07:26:16;;;;;;;22.02;10.65;;;;;;;37.83;32.99;96128.00;5075137;28;20110;-67
2021/08/02 07:28:43;;;;;;;15.63;9.45;;;;;;;37.66;31.95;96123.34;5075149;28;20024;-67
2021/08/02 07:31:09;;;;;;;14.02;10.20;;;;;;;37.87;32.95;96133.81;5075014;28;20024;-67
2021/08/02 07:33:35;;;;;;;18.85;10.07;;;;;;;38.06;32.35;96129.00;5074983;28;20401;-67
2021/08/02 07:36:01;;;;;;;17.55;9.52;;;;;;;38.22;31.08;96130.13;5074737;28;20021;-67
2021/08/02 07:38:27;;;;;;;16.77;10.45;;;;;;;38.57;30.56;96125.50;5074842;28;20017;-67
2021/08/02 07:40:52;;;;;;;14.13;9.30;;;;;;;38.55;28.51;96125.75;5074628;28;20059;-67
2021/08/02 07:43:18;;;;;;;17.70;10.05;;;;;;;38.48;29.06;96129.72;5074633;28;20029;-67
2021/08/02 07:45:44;;;;;;;21.38;9.63;;;;;;;38.30;28.84;96121.53;5074802;28;20028;-66
2021/08/02 07:48:10;;;;;;;14.05;9.40;;;;;;;38.02;29.72;96130.56;5074743;28;20025;-67
2021/08/02 07:50:36;;;;;;;15.82;9.93;;;;;;;37.92;29.39;96125.75;5074750;28;20031;-67
2021/08/02 07:53:02;;;;;;;15.35;10.20;;;;;;;37.99;28.87;96114.69;5074559;28;20494;-67
2021/08/02 07:55:28;;;;;;;18.92;10.45;;;;;;;38.05;31.20;96119.97;5074587;28;20098;-67
2021/08/02 07:57:56;;;;;;;15.45;10.15;;;;;;;37.95;30.22;96111.59;5056693;28;20029;-67
2021/08/02 08:00:21;;;;;;;20.40;9.90;;;;;;;38.03;29.89;96113.09;5074479;28;20040;-67
2021/08/02 08:02:48;;;;;;;17.83;9.98;;;;;;;37.91;30.11;96107.72;5074359;28;20031;-67
2021/08/02 08:05:15;;;;;;;25.67;10.43;;;;;;;37.85;30.33;96108.69;5074413;28;20054;-67
2021/08/02 08:07:52;;;;;;;20.95;10.32;;;;;;;38.16;30.35;96101.09;5074342;28;20073;-67
2021/08/02 08:10:22;;;;;;;20.92;9.88;;;;;;;38.40;29.68;96100.94;5074324;28;20493;-66
2021/08/02 08:12:51;;;;;;;14.80;9.30;;;;;;;38.29;28.94;96100.75;5073609;28;20040;-67
2021/08/02 08:15:20;;;;;;;16.92;10.00;;;;;;;38.30;29.18;96099.69;5074208;28;20413;-66
2021/08/02 08:17:46;;;;;;;16.50;9.85;;;;;;;38.63;30.30;96097.22;5074186;28;20409;-67
2021/08/02 08:20:13;;;;;;;16.98;9.93;;;;;;;38.94;30.00;96096.84;5074107;28;20020;-67
2021/08/02 08:22:40;;;;;;;17.88;9.50;;;;;;;39.09;28.47;96092.69;5073950;28;20032;-67
2021/08/02 08:25:10;;;;;;;19.33;9.48;;;;;;;39.02;29.25;96093.69;5074030;28;20475;-67
2021/08/02 08:27:36;;;;;;;19.42;9.68;;;;;;;39.23;28.28;96090.41;5073937;28;20040;-67
2021/08/02 08:30:04;;;;;;;19.95;9.35;;;;;;;39.59;27.10;96092.78;5073848;28;20032;-67
2021/08/02 08:32:30;;;;;;;20.42;10.55;;;;;;;39.82;27.11;96085.38;5073855;28;20020;-67
2021/08/02 08:34:55;;;;;;;16.95;9.13;;;;;;;40.01;26.53;96085.81;5073617;28;20550;-66
2021/08/02 08:37:21;;;;;;;17.20;9.65;;;;;;;39.69;26.36;96090.16;5073590;28;20016;-66
2021/08/02 08:39:47;;;;;;;16.35;9.38;;;;;;;39.22;27.55;96078.69;5073652;28;20035;-67
2021/08/02 08:42:14;;;;;;;18.75;9.38;;;;;;;39.29;28.75;96078.47;5073350;28;20036;-67
2021/08/02 08:44:41;;;;;;;23.65;8.75;;;;;;;39.35;27.13;96073.88;5073533;28;20601;-67
2021/08/02 08:47:08;;;;;;;19.95;9.20;;;;;;;39.58;26.26;96072.00;5073501;28;20025;-67
2021/08/02 08:49:33;;;;;;;18.73;9.10;;;;;;;39.46;26.61;96075.69;5073459;28;20028;-67
2021/08/02 08:52:00;;;;;;;16.83;8.65;;;;;;;39.37;25.63;96069.84;5073404;28;20021;-67
2021/08/02 08:54:32;;;;;;;20.67;9.15;;;;;;;39.38;26.85;96071.47;5073361;28;20439;-67
2021/08/02 08:56:58;;;;;;;20.48;9.20;;;;;;;39.12;26.67;96073.88;5073354;28;20020;-66
2021/08/02 08:59:24;;;;;;;18.35;8.88;;;;;;;39.31;26.08;96070.84;5073290;28;20028;-67
2021/08/02 09:02:01;;;;;;;25.33;9.77;;;;;;;39.35;26.27;96066.53;5073471;28;20067;-67
2021/08/02 09:04:29;;;;;;;23.55;9.15;;;;;;;39.09;25.84;96068.91;5073229;28;20116;-67
2021/08/02 09:06:58;;;;;;;20.05;9.50;;;;;;;39.07;26.94;96057.41;5073188;28;20485;-67
2021/08/02 09:09:28;;;;;;;29.90;9.77;;;;;;;39.16;26.78;96052.34;5073183;28;20076;-67
2021/08/02 09:12:13;;;;;;;16.60;8.82;;;;;;;39.28;27.31;96053.03;5073281;28;20024;-67
2021/08/02 09:14:52;;;;;;;23.15;8.80;;;;;;;39.37;26.10;96050.69;5073173;28;20036;-67
2021/08/02 09:17:36;;;;;;;18.63;9.23;;;;;;;39.11;25.37;96049.53;5073250;28;20016;-66
2021/08/02 09:20:21;;;;;;;17.10;9.05;;;;;;;39.09;28.06;96040.75;5073088;28;20064;-67
2021/08/02 09:22:47;;;;;;;18.25;9.43;;;;;;;39.23;28.28;96046.69;5072604;28;20032;-67
2021/08/02 09:25:20;;;;;;;30.77;9.73;;;;;;;39.39;24.47;96043.03;5072428;28;20017;-67
2021/08/02 09:27:46;;;;;;;21.70;9.93;;;;;;;39.61;25.41;96044.97;5073073;28;20111;-67
2021/08/02 09:30:20;;;;;;;23.40;9.35;;;;;;;39.83;25.39;96045.97;5055008;28;20021;-67
2021/08/02 09:33:02;;;;;;;22.42;10.18;;;;;;;39.69;26.45;96043.66;5072949;28;20036;-67
2021/08/02 09:35:33;;;;;;;17.75;9.02;;;;;;;39.75;26.48;96039.06;5072842;28;20040;-67
2021/08/02 09:38:06;;;;;;;20.05;10.43;;;;;;;39.74;27.34;96038.25;5072887;28;20127;-67
2021/08/02 09:40:42;;;;;;;25.20;10.52;;;;;;;39.98;27.08;96028.88;5072902;28;20032;-67
2021/08/02 09:43:22;;;;;;;20.92;10.30;;;;;;;39.98;27.33;96024.25;5072725;28;20044;-67
2021/08/02 09:45:51;;;;;;;18.77;9.75;;;;;;;39.78;27.24;96035.81;5072989;28;20032;-67
2021/08/02 09:48:18;;;;;;;19.83;9.75;;;;;;;39.91;27.10;96024.44;5072852;28;20040;-67
2021/08/02 09:50:49;;;;;;;20.42;10.93;;;;;;;39.77;26.20;96031.44;5072670;28;20028;-67
2021/08/02 09:53:20;;;;;;;24.13;10.30;;;;;;;39.70;26.95;96028.91;5072704;28;20052;-67
2021/08/02 09:55:48;;;;;;;23.02;8.77;;;;;;;39.71;25.21;96024.25;5072745;28;20410;-67
2021/08/02 09:58:21;;;;;;;28.00;8.85;;;;;;;39.67;26.53;96022.03;5072689;28;20486;-67
2021/08/02 10:00:47;;;;;;;27.45;9.05;;;;;;;39.76;26.37;96019.66;5072796;28;20052;-67
2021/08/02 10:03:15;;;;;;;20.77;7.72;;;;;;;39.75;25.95;96012.53;5072631;28;20013;-67
2021/08/02 10:05:41;;;;;;;23.98;9.20;;;;;;;39.82;26.13;96015.06;5054968;28;20062;-67
2021/08/02 10:08:07;;;;;;;20.98;9.07;;;;;;;39.89;25.32;96018.41;5072666;28;20025;-67
2021/08/02 10:10:38;;;;;;;20.08;8.88;;;;;;;39.98;26.38;96013.28;5072659;28;20083;-66
2021/08/02 10:13:06;;;;;;;17.77;8.27;;;;;;;39.97;26.13;96008.91;5072549;28;20037;-67
2021/08/02 10:15:33;;;;;;;22.60;8.52;;;;;;;39.75;25.86;96012.53;5072462;28;20032;-67
2021/08/02 10:18:05;;;;;;;20.98;9.00;;;;;;;39.62;24.36;96007.47;5072539;28;20165;-67
2021/08/02 10:20:35;;;;;;;22.35;8.30;;;;;;;39.68;24.65;95999.09;5072470;28;20078;-67
2021/08/02 10:23:02;;;;;;;;;;;;;;;39.64;25.60;95994.38;5073059;28;20052;-67
2021/08/02 10:25:32;;;;;;;16.90;8.23;;;;;;;39.67;23.97;95994.69;5072642;28;19924;-67
2021/08/02 10:28:09;;;;;;;22.70;8.13;;;;;;;39.83;24.78;95991.25;5072583;28;20028;-67
2021/08/02 10:30:36;;;;;;;25.63;8.57;;;;;;;39.80;25.93;95990.72;5072401;28;20037;-67
2021/08/02 10:33:02;;;;;;;37.25;8.63;;;;;;;39.87;25.48;95998.69;5072356;28;20021;-67
2021/08/02 10:35:37;;;;;;;24.30;8.23;;;;;;;40.00;24.43;95989.22;5074015;28;20053;-67
2021/08/02 10:38:16;;;;;;;24.38;9.52;;;;;;;40.09;25.00;95992.34;5076114;28;20016;-67
2021/08/02 10:40:51;;;;;;;28.40;10.40;;;;;;;40.20;23.27;95978.72;5075674;28;20028;-66
2021/08/02 10:43:30;;;;;;;29.42;9.20;;;;;;;40.31;24.86;95974.97;5075952;28;20086;-67
2021/08/02 10:45:58;;;;;;;26.88;9.68;;;;;;;40.26;23.85;95973.00;5076158;28;20485;-67
2021/08/02 10:48:29;;;;;;;29.38;8.32;;;;;;;40.06;22.72;95970.97;5075921;28;20074;-67
2021/08/02 10:50:56;;;;;;;32.60;8.68;;;;;;;39.35;22.61;95964.53;5075813;28;20028;-67
2021/08/02 10:53:22;;;;;;;22.13;7.82;;;;;;;39.24;22.82;95969.88;5076030;28;20024;-67
2021/08/02 10:55:50;;;;;;;23.25;8.40;;;;;;;38.73;23.89;95962.72;5075695;28;20040;-67
2021/08/02 10:58:30;;;;;;;18.65;8.38;;;;;;;38.38;24.49;95964.69;5075645;28;20417;-67
2021/08/02 11:01:00;;;;;;;;;;;;;;;38.29;25.00;95960.75;5076037;28;20036;-67
2021/08/02 11:03:39;;;;;;;;;;;;;;;38.25;26.93;95954.94;5076096;28;20436;-67
2021/08/02 11:06:19;;;;;;;24.88;9.55;;;;;;;38.29;25.61;95952.56;5075511;28;20374;-67
2021/08/02 11:08:55;;;;;;;24.75;10.02;;;;;;;38.18;27.68;95943.38;5075611;28;20123;-67
2021/08/02 11:11:22;;;;;;;26.65;9.30;;;;;;;38.38;27.43;95948.31;5075475;28;20044;-67
2021/08/02 11:13:49;;;;;;;22.63;9.02;;;;;;;38.68;26.99;95951.75;5075281;28;20082;-67
2021/08/02 11:16:14;;;;;;;26.95;9.48;;;;;;;38.83;26.08;95950.28;5075151;28;20520;-67
2021/08/02 11:18:45;;;;;;;25.88;8.70;;;;;;;38.91;25.92;95936.16;5075333;28;20016;-67
2021/08/02 11:21:26;;;;;;;36.72;9.07;;;;;;;39.06;25.53;95940.97;5075237;28;20087;-67
2021/08/02 11:23:56;;;;;;;21.58;9.80;;;;;;;39.17;26.50;95941.94;5075202;28;20020;-67
2021/08/02 11:26:23;;;;;;;24.15;10.35;;;;;;;39.26;24.98;95934.09;5075230;28;20039;-67
2021/08/02 11:28:51;;;;;;;18.77;8.68;;;;;;;39.32;23.98;95941.28;5075125;28;20020;-67